createdAt,value
2023-05-22T00:00:07.863Z,49.89
2023-05-22T00:03:12.996Z,49.20
2023-05-22T00:06:16.338Z,48.61
2023-05-22T00:09:19.554Z,48.11
2023-05-22T00:12:22.706Z,47.02
2023-05-22T00:15:25.914Z,49.32
2023-05-22T00:18:29.745Z,48.01
2023-05-22T00:21:35.004Z,50.04
2023-05-22T00:24:38.864Z,51.95
2023-05-22T00:27:41.767Z,52.62
2023-05-22T00:30:44.723Z,53.90
2023-05-22T00:33:47.507Z,53.56
2023-05-22T00:36:50.229Z,52.53
2023-05-22T00:39:53.440Z,52.00
2023-05-22T00:42:59.085Z,50.49
2023-05-22T00:46:03.318Z,52.70
2023-05-22T00:49:06.343Z,52.30
2023-05-22T00:52:10.500Z,49.71
2023-05-22T00:55:14.722Z,49.21
2023-05-22T00:58:18.624Z,50.55
2023-05-22T01:01:23.467Z,52.02
2023-05-22T01:04:27.107Z,53.35
2023-05-22T01:07:31.016Z,52.84
2023-05-22T01:10:37.399Z,55.06
2023-05-22T01:13:54.775Z,55.21
2023-05-22T01:17:09.430Z,53.83
2023-05-22T01:20:30.236Z,53.93
2023-05-22T01:23:59.672Z,54.47
2023-05-22T01:27:26.257Z,55.54
2023-05-22T01:30:55.279Z,56.71
2023-05-22T01:34:03.129Z,54.78
2023-05-22T01:37:07.539Z,53.93
2023-05-22T01:40:12.470Z,54.71
2023-05-22T01:43:16.656Z,53.27
2023-05-22T01:46:22.047Z,54.69
2023-05-22T01:49:29.150Z,52.81
2023-05-22T01:52:56.691Z,55.95
2023-05-22T01:56:34.886Z,55.77
2023-05-22T01:59:37.979Z,56.44
2023-05-22T02:02:45.493Z,56.37
2023-05-22T02:05:56.291Z,56.79
2023-05-22T02:09:03.187Z,57.20
2023-05-22T02:12:08.254Z,58.00
2023-05-22T02:15:12.292Z,59.15
2023-05-22T02:18:15.871Z,57.79
2023-05-22T02:21:19.971Z,57.80
2023-05-22T02:24:23.981Z,58.56
2023-05-22T02:27:28.246Z,57.17
2023-05-22T02:30:31.421Z,55.68
2023-05-22T02:33:34.835Z,54.55
2023-05-22T02:36:38.195Z,55.52
2023-05-22T02:39:41.469Z,55.85
2023-05-22T02:42:44.968Z,56.71
2023-05-22T02:45:48.975Z,59.17
2023-05-22T02:48:53.574Z,60.15
2023-05-22T02:51:57.402Z,60.02
2023-05-22T02:55:00.695Z,60.77
2023-05-22T02:58:03.717Z,60.54
2023-05-22T03:01:10.844Z,60.65
2023-05-22T03:04:14.640Z,60.47
2023-05-22T03:07:17.914Z,61.22
2023-05-22T03:10:20.786Z,62.45
2023-05-22T03:13:24.084Z,60.13
2023-05-22T03:16:28.652Z,61.96
2023-05-22T03:19:31.824Z,63.23
2023-05-22T03:22:34.720Z,64.34
2023-05-22T03:25:37.489Z,62.83
2023-05-22T03:28:40.858Z,63.40
2023-05-22T03:31:43.913Z,62.57
2023-05-22T03:34:52.462Z,63.18
2023-05-22T03:37:55.598Z,61.98
2023-05-22T03:40:58.443Z,62.67
2023-05-22T03:44:01.644Z,63.75
2023-05-22T03:47:05.470Z,61.83
2023-05-22T03:50:09.528Z,61.50
2023-05-22T03:53:12.909Z,61.54
2023-05-22T03:56:16.750Z,62.57
2023-05-22T03:59:19.617Z,63.96
2023-05-22T04:02:22.818Z,61.83
2023-05-22T04:05:27.441Z,63.45
2023-05-22T04:08:31.028Z,63.13
2023-05-22T04:11:37.329Z,62.74
2023-05-22T04:14:40.155Z,63.98
2023-05-22T04:17:43.987Z,61.53
2023-05-22T04:20:46.925Z,61.69
2023-05-22T04:23:50.246Z,63.68
2023-05-22T04:26:53.470Z,60.81
2023-05-22T04:29:56.703Z,59.20
2023-05-22T04:33:01.965Z,58.89
2023-05-22T04:36:09.820Z,57.98
2023-05-22T04:39:34.892Z,58.09
2023-05-22T04:42:39.296Z,57.24
2023-05-22T04:45:43.083Z,57.03
2023-05-22T04:48:47.596Z,57.26
2023-05-22T04:51:51.613Z,58.00
2023-05-22T04:54:55.608Z,57.18
2023-05-22T04:57:59.989Z,56.48
2023-05-22T05:01:03.612Z,56.35
2023-05-22T05:04:06.951Z,53.84
2023-05-22T05:07:09.856Z,50.28
2023-05-22T05:10:13.647Z,51.22
2023-05-22T05:13:17.032Z,51.26
2023-05-22T05:16:26.168Z,49.35
2023-05-22T05:19:29.355Z,49.32
2023-05-22T05:22:33.388Z,48.24
2023-05-22T05:25:44.035Z,48.10
2023-05-22T05:28:47.315Z,46.42
2023-05-22T05:36:06.551Z,46.91
2023-05-22T05:39:13.649Z,46.77
2023-05-22T05:42:37.868Z,45.02
2023-05-22T05:46:03.028Z,45.11
2023-05-22T05:49:11.684Z,47.94
2023-05-22T05:52:17.071Z,44.24
2023-05-22T05:55:25.610Z,43.67
2023-05-22T05:58:32.276Z,42.59
2023-05-22T06:02:01.129Z,40.59
2023-05-22T06:05:09.337Z,40.67
2023-05-22T06:13:15.266Z,40.99
2023-05-22T06:16:18.900Z,40.75
2023-05-22T06:19:38.043Z,39.15
2023-05-22T06:22:59.086Z,39.01
2023-05-22T06:26:02.525Z,38.74
2023-05-22T06:29:06.663Z,38.70
2023-05-22T06:32:12.434Z,39.66
2023-05-22T06:35:20.621Z,38.63
2023-05-22T06:38:24.813Z,38.44
2023-05-22T06:41:29.353Z,39.39
2023-05-22T06:44:32.709Z,40.34
2023-05-22T06:47:41.300Z,39.26
2023-05-22T06:50:45.713Z,39.80
2023-05-22T06:53:49.425Z,38.18
2023-05-22T06:56:57.683Z,37.72
2023-05-22T07:00:08.013Z,37.82
2023-05-22T07:03:30.529Z,38.20
2023-05-22T07:07:34.009Z,38.71
2023-05-22T07:10:44.836Z,40.86
2023-05-22T07:13:48.839Z,39.15
2023-05-22T07:16:52.622Z,37.96
2023-05-22T07:20:02.759Z,38.58
2023-05-22T07:23:09.332Z,38.61
2023-05-22T07:26:14.236Z,40.13
2023-05-22T07:29:24.561Z,38.88
2023-05-22T07:32:29.971Z,37.76
2023-05-22T07:35:36.156Z,37.66
2023-05-22T07:38:40.393Z,38.20
2023-05-22T07:41:50.399Z,37.88
2023-05-22T07:44:56.329Z,37.58
2023-05-22T07:48:02.397Z,37.96
2023-05-22T07:51:08.230Z,37.69
2023-05-22T07:54:19.377Z,37.56
2023-05-22T07:57:26.826Z,37.02
2023-05-22T08:00:32.633Z,38.76
2023-05-22T08:03:39.646Z,38.67
2023-05-22T08:06:46.272Z,38.25
2023-05-22T08:13:06.778Z,37.66
2023-05-22T08:16:10.467Z,36.85
2023-05-22T08:19:14.158Z,37.73
2023-05-22T08:22:18.043Z,37.59
2023-05-22T08:25:31.360Z,37.54
2023-05-22T08:28:35.028Z,36.63
2023-05-22T08:31:42.546Z,37.94
2023-05-22T08:34:46.725Z,36.60
2023-05-22T08:37:51.127Z,37.19
2023-05-22T08:40:59.127Z,37.83
2023-05-22T08:44:02.687Z,36.12
2023-05-22T08:47:14.518Z,34.62
2023-05-22T08:50:19.686Z,36.25
2023-05-22T08:53:26.967Z,36.26
2023-05-22T08:56:33.367Z,34.26
2023-05-22T08:59:42.207Z,33.17
2023-05-22T09:02:48.194Z,33.85
2023-05-22T09:05:54.937Z,34.34
2023-05-22T09:08:59.629Z,33.72
2023-05-22T09:12:03.008Z,32.89
2023-05-22T09:15:11.223Z,35.55
2023-05-22T09:18:17.366Z,34.35
2023-05-22T09:21:29.480Z,34.41
2023-05-22T09:24:46.523Z,33.73
2023-05-22T09:27:49.678Z,33.07
2023-05-22T09:31:00.636Z,32.54
2023-05-22T09:34:11.242Z,34.29
2023-05-22T09:37:16.229Z,33.49
2023-05-22T09:40:19.396Z,35.06
2023-05-22T09:43:25.558Z,33.51
2023-05-22T09:46:30.331Z,33.99
2023-05-22T09:49:47.673Z,33.95
2023-05-22T09:52:52.614Z,33.89
2023-05-22T09:56:00.596Z,32.87
2023-05-22T09:59:09.298Z,32.61
2023-05-22T10:02:13.683Z,32.40
2023-05-22T10:05:23.108Z,33.95
2023-05-22T10:08:29.778Z,34.47
2023-05-22T10:11:50.123Z,33.42
2023-05-22T10:14:56.270Z,32.90
2023-05-22T10:18:01.285Z,32.82
2023-05-22T10:21:05.401Z,34.97
2023-05-22T10:24:10.737Z,34.10
2023-05-22T10:27:17.983Z,32.53
2023-05-22T10:34:58.169Z,32.43
2023-05-22T10:38:30.479Z,33.15
2023-05-22T10:41:37.398Z,34.08
2023-05-22T10:44:41.669Z,34.24
2023-05-22T10:47:45.934Z,31.71
2023-05-22T10:50:56.055Z,31.39
2023-05-22T10:54:06.279Z,30.69
2023-05-22T10:57:18.262Z,30.59
2023-05-22T11:00:30.953Z,29.21
2023-05-22T11:03:57.844Z,29.38
2023-05-22T11:07:07.387Z,28.30
2023-05-22T11:10:11.965Z,26.55
2023-05-22T11:13:20.288Z,27.06
2023-05-22T11:16:24.236Z,30.03
2023-05-22T11:19:28.136Z,28.55
2023-05-22T11:22:46.092Z,29.34
2023-05-22T11:25:49.444Z,30.77
2023-05-22T11:28:53.778Z,29.10
2023-05-22T11:32:00.185Z,29.81
2023-05-22T11:35:05.658Z,29.80
2023-05-22T11:38:12.826Z,28.85
2023-05-22T11:41:17.438Z,28.13
2023-05-22T11:44:30.239Z,30.41
2023-05-22T11:47:34.612Z,29.14
2023-05-22T11:50:42.191Z,29.03
2023-05-22T11:53:49.385Z,29.03
2023-05-22T11:56:52.430Z,26.96
2023-05-22T11:59:56.349Z,26.15
2023-05-22T12:03:10.635Z,27.35
2023-05-22T12:06:23.694Z,27.62
2023-05-22T12:09:44.252Z,26.89
2023-05-22T12:12:51.393Z,27.65
2023-05-22T12:15:56.923Z,26.12
2023-05-22T12:19:14.568Z,24.64
2023-05-22T12:22:24.082Z,23.75
2023-05-22T12:25:39.714Z,23.00
2023-05-22T12:28:49.540Z,25.74
2023-05-22T12:32:04.181Z,26.97
2023-05-22T12:35:15.253Z,27.87
2023-05-22T12:38:21.826Z,26.92
2023-05-22T12:41:28.080Z,28.12
2023-05-22T12:44:32.648Z,25.11
2023-05-22T12:47:36.370Z,25.75
2023-05-22T12:50:41.562Z,24.57
2023-05-22T12:53:48.682Z,24.73
2023-05-22T12:56:52.710Z,24.13
2023-05-22T12:59:57.671Z,26.58
2023-05-22T13:03:05.988Z,26.34
2023-05-22T13:06:32.959Z,25.12
2023-05-22T13:09:43.107Z,27.29
2023-05-22T13:13:02.546Z,27.49
2023-05-22T13:16:17.668Z,26.15
2023-05-22T13:19:32.924Z,27.18
2023-05-22T13:23:11.962Z,28.35
2023-05-22T13:26:23.653Z,25.92
2023-05-22T13:29:30.784Z,25.48
2023-05-22T13:32:36.334Z,24.02
2023-05-22T13:35:40.867Z,23.58
2023-05-22T13:38:45.426Z,23.78
2023-05-22T13:41:49.317Z,26.14
2023-05-22T13:44:56.194Z,26.03
2023-05-22T13:48:00.810Z,26.28
2023-05-22T13:51:08.793Z,25.13
2023-05-22T13:54:19.344Z,26.64
2023-05-22T13:57:22.952Z,26.71
2023-05-22T14:00:32.687Z,25.91
2023-05-22T14:03:37.978Z,24.87
2023-05-22T14:06:41.454Z,25.70
2023-05-22T14:09:47.077Z,24.66
2023-05-22T14:12:50.004Z,25.65
2023-05-22T14:15:52.934Z,24.52
2023-05-22T14:18:56.373Z,23.22
2023-05-22T14:22:00.661Z,24.03
2023-05-22T14:25:03.841Z,26.14
2023-05-22T14:28:06.866Z,27.00
2023-05-22T14:31:10.460Z,27.28
2023-05-22T14:34:17.673Z,26.56
2023-05-22T14:37:21.666Z,25.65
2023-05-22T14:40:24.594Z,27.25
2023-05-22T14:43:27.655Z,27.16
2023-05-22T14:46:33.852Z,28.35
2023-05-22T14:49:37.183Z,28.30
2023-05-22T14:52:40.111Z,28.20
2023-05-22T14:55:43.031Z,27.64
2023-05-22T14:58:45.910Z,26.63
2023-05-22T15:01:50.585Z,29.08
2023-05-22T15:04:53.523Z,28.96
2023-05-22T15:07:58.714Z,29.25
2023-05-22T15:11:01.686Z,30.70
2023-05-22T15:14:04.682Z,31.78
2023-05-22T15:17:07.733Z,31.16
2023-05-22T15:20:11.721Z,32.50
2023-05-22T15:23:15.229Z,32.75
2023-05-22T15:26:18.319Z,32.39
2023-05-22T15:29:21.369Z,31.86
2023-05-22T15:32:24.474Z,31.75
2023-05-22T15:35:31.101Z,31.36
2023-05-22T15:38:34.407Z,32.43
2023-05-22T15:41:39.084Z,33.19
2023-05-22T15:44:44.717Z,33.39
2023-05-22T15:47:48.128Z,33.59
2023-05-22T15:50:51.073Z,33.85
2023-05-22T15:53:54.049Z,34.35
2023-05-22T15:56:57.935Z,34.85
2023-05-22T16:00:00.841Z,35.25
2023-05-22T16:03:04.001Z,35.12
2023-05-22T16:06:07.265Z,35.50
2023-05-22T16:09:11.567Z,34.76
2023-05-22T16:12:18.021Z,36.15
2023-05-22T16:15:21.503Z,36.74
2023-05-22T16:18:24.647Z,35.84
2023-05-22T16:21:27.987Z,36.16
2023-05-22T16:24:31.254Z,36.91
2023-05-22T16:27:34.284Z,37.33
2023-05-22T16:30:37.393Z,36.31
2023-05-22T16:33:40.284Z,36.57
2023-05-22T16:36:43.272Z,36.52
2023-05-22T16:39:47.434Z,36.05
2023-05-22T16:42:51.852Z,36.28
2023-05-22T16:45:54.823Z,36.24
2023-05-22T16:48:58.216Z,35.30
2023-05-22T16:52:01.390Z,34.71
2023-05-22T16:55:07.843Z,35.23
2023-05-22T16:58:11.877Z,34.30
2023-05-22T17:01:15.132Z,35.11
2023-05-22T17:04:19.401Z,35.44
2023-05-22T17:07:22.393Z,35.46
2023-05-22T17:10:25.673Z,36.03
2023-05-22T17:13:28.853Z,36.45
2023-05-22T17:16:33.547Z,36.14
2023-05-22T17:19:40.370Z,37.00
2023-05-22T17:22:43.500Z,37.69
2023-05-22T17:25:49.861Z,37.94
2023-05-22T17:28:53.028Z,38.45
2023-05-22T17:31:56.337Z,38.27
2023-05-22T17:35:00.016Z,39.11
2023-05-22T17:38:03.381Z,39.19
2023-05-22T17:41:07.699Z,39.57
2023-05-22T17:44:11.181Z,39.84
2023-05-22T17:47:14.951Z,40.47
2023-05-22T17:50:18.230Z,40.62
2023-05-22T17:53:21.737Z,41.41
2023-05-22T17:56:27.140Z,42.11
2023-05-22T17:59:32.680Z,46.13
2023-05-22T18:02:39.963Z,47.75
2023-05-22T18:05:43.868Z,49.72
2023-05-22T18:08:48.139Z,51.46
2023-05-22T18:11:53.467Z,53.11
2023-05-22T18:14:56.546Z,53.40
2023-05-22T18:18:00.230Z,53.75
2023-05-22T18:21:03.609Z,55.20
2023-05-22T18:24:07.087Z,56.16
2023-05-22T18:27:10.267Z,56.58
2023-05-22T18:30:13.754Z,56.31
2023-05-22T18:33:16.935Z,57.34
2023-05-22T18:36:20.309Z,58.34
2023-05-22T18:39:23.694Z,59.12
2023-05-22T18:42:26.764Z,59.23
2023-05-22T18:45:30.362Z,59.96
2023-05-22T18:48:33.435Z,59.77
2023-05-22T18:51:37.327Z,60.85
2023-05-22T18:54:40.808Z,61.70
2023-05-22T18:57:44.292Z,62.08
2023-05-22T19:00:47.629Z,63.01
2023-05-22T19:03:51.257Z,63.64
2023-05-22T19:06:54.664Z,64.56
2023-05-22T19:09:57.725Z,64.32
2023-05-22T19:13:00.894Z,64.65
2023-05-22T19:16:04.588Z,65.25
2023-05-22T19:19:11.549Z,65.37
2023-05-22T19:22:17.923Z,65.34
2023-05-22T19:25:21.592Z,65.54
2023-05-22T19:28:25.071Z,65.38
2023-05-22T19:31:29.735Z,65.33
2023-05-22T19:34:34.411Z,65.03
2023-05-22T19:37:37.775Z,65.59
2023-05-22T19:40:41.095Z,65.63
2023-05-22T19:43:45.460Z,66.00
2023-05-22T19:46:48.515Z,66.14
2023-05-22T19:49:51.504Z,66.04
2023-05-22T19:52:54.618Z,66.51
2023-05-22T19:55:57.654Z,66.11
2023-05-22T19:59:00.937Z,66.63
2023-05-22T20:02:04.184Z,66.54
2023-05-22T20:05:13.191Z,66.80
2023-05-22T20:08:16.810Z,67.45
2023-05-22T20:11:19.988Z,67.47
2023-05-22T20:14:23.268Z,67.33
2023-05-22T20:17:26.832Z,67.08
2023-05-22T20:20:30.249Z,65.48
2023-05-22T20:23:34.435Z,64.85
2023-05-22T20:26:37.919Z,65.18
2023-05-22T20:29:41.202Z,66.18
2023-05-22T20:32:46.596Z,66.18
2023-05-22T20:35:52.842Z,66.94
2023-05-22T20:38:59.745Z,66.74
2023-05-22T20:42:03.424Z,67.51
2023-05-22T20:45:07.728Z,66.28
2023-05-22T20:48:12.390Z,66.23
2023-05-22T20:51:21.669Z,67.06
2023-05-22T20:54:25.042Z,67.63
2023-05-22T20:57:28.316Z,67.50
2023-05-22T21:00:31.707Z,66.96
2023-05-22T21:03:35.627Z,66.40
2023-05-22T21:06:39.692Z,67.01
2023-05-22T21:09:42.974Z,67.24
2023-05-22T21:12:46.360Z,67.26
2023-05-22T21:15:50.348Z,67.68
2023-05-22T21:18:53.850Z,68.20
2023-05-22T21:21:57.009Z,68.58
2023-05-22T21:25:00.718Z,68.44
2023-05-22T21:28:04.491Z,68.91
2023-05-22T21:31:36.660Z,68.83
2023-05-22T21:34:39.706Z,69.63
2023-05-22T21:37:42.802Z,68.45
2023-05-22T21:40:45.957Z,68.90
2023-05-22T21:43:49.087Z,69.58
2023-05-22T21:46:52.441Z,70.35
2023-05-22T21:49:55.642Z,70.74
2023-05-22T21:52:58.789Z,70.83
2023-05-22T21:56:02.055Z,71.16
2023-05-22T21:59:04.842Z,72.36
2023-05-22T22:02:07.997Z,72.35
2023-05-22T22:05:14.094Z,72.42
2023-05-22T22:08:17.324Z,72.42
2023-05-22T22:11:20.559Z,71.58
2023-05-22T22:14:24.287Z,72.52
2023-05-22T22:17:27.406Z,72.69
2023-05-22T22:20:44.109Z,72.02
2023-05-22T22:23:48.000Z,71.89
2023-05-22T22:26:54.079Z,72.71
2023-05-22T22:29:57.062Z,72.19
2023-05-22T22:33:03.185Z,73.95
2023-05-22T22:36:06.280Z,73.90
2023-05-22T22:39:09.056Z,72.71
2023-05-22T22:42:11.925Z,73.26
2023-05-22T22:45:15.097Z,72.54
2023-05-22T22:48:22.692Z,72.07
2023-05-22T22:51:25.963Z,72.47
2023-05-22T22:54:29.073Z,73.26
2023-05-22T22:57:32.316Z,74.22
2023-05-22T23:00:36.922Z,74.62
2023-05-22T23:03:39.894Z,75.25
2023-05-22T23:06:42.976Z,74.45
2023-05-22T23:09:46.069Z,74.54
2023-05-22T23:12:49.012Z,75.25
2023-05-22T23:15:52.145Z,75.39
2023-05-22T23:18:55.492Z,75.47
2023-05-22T23:21:58.653Z,75.67
2023-05-22T23:25:01.743Z,75.85
2023-05-22T23:28:06.096Z,76.21
2023-05-22T23:31:09.889Z,76.52
2023-05-22T23:34:12.938Z,76.25
2023-05-22T23:37:16.267Z,76.99
2023-05-22T23:40:19.090Z,77.63
2023-05-22T23:43:22.268Z,78.36
2023-05-22T23:46:25.223Z,77.39
2023-05-22T23:49:28.092Z,77.03
2023-05-22T23:52:30.940Z,76.59
2023-05-22T23:55:33.965Z,76.73
2023-05-22T23:58:39.695Z,77.07
